100LL.CA
Aviation Fuel Pricing for Canadians
Please upgrade your browser - Tested with IE9, FireFox, Chrome, Safari

Fuel Airports Other Help
Prices Economy Info List METAR/TAF Kneeboard Help

Reference Airport: CHAPLEAU, ON
N 47 49 13  W 083 20 49
Provinces to show:

CYLD CHAPLEAU, ON
WEATHER
METARCYLD 221500Z VRB02KT 15SM FEW190 OVC210 19/12 A3002 RMK AS2CS6 SLP172 DENSITY ALT 2200FT
TAFTAF CYLD 221340Z 2214/2301 VRB03KT P6SM BKN200 FM222100 12007KT P6SM SCT025 BKN120 TEMPO 2221/2301 6SM -SHRA BR BKN020 OVC100 RMK NXT FCST BY 222000Z
OTHER SITES

FlightAware

FltPlan

Google Maps

SkyVector
FUEL
FBO 100LL
member
100LL
public
JETA MOGAS
Opr (2022-06-09)3.3922.650
  Note: No taxi service available
Canada Flight Supplement - CYLD
(opens in new tab/window)


Please Send Updates!

Desktop Version ]  [ Mobile Version ]  [ Disclaimer ]